Time;durP1;ratioP1;P1;durP2;ratioP2;P2;SDS_P1;SDS_P2;PMS_P1;PMS_P2;Temp;Humidity;BMP_temperature;BMP_pressure;BME280_temperature;BME280_humidity;BME280_pressure;Samples;Min_cycle;Max_cycle;Signal;HPM_P1;HPM_P2
2021/01/24 00:01:48;;;;;;;41.38;25.98;;;;;;;;;;4956666;28;20023;-77
2021/01/24 00:04:14;;;;;;;42.75;26.45;;;;;;;;;;4956676;28;20018;-77
2021/01/24 00:06:40;;;;;;;40.63;25.00;;;;;;;;;;4974268;28;20019;-77
2021/01/24 00:09:06;;;;;;;43.80;26.95;;;;;;;;;;4956637;28;20026;-77
2021/01/24 00:11:32;;;;;;;44.88;29.10;;;;;;;;;;4956721;28;20030;-77
2021/01/24 00:13:58;;;;;;;47.38;28.75;;;;;;;;;;4973694;28;20539;-78
2021/01/24 00:16:24;;;;;;;43.67;27.42;;;;;;;;;;4973764;28;20042;-77
2021/01/24 00:18:50;;;;;;;48.08;27.45;;;;;;;;;;4973712;28;20058;-77
2021/01/24 00:21:16;;;;;;;42.58;27.58;;;;;;;;;;4956695;28;20042;-78
2021/01/24 00:23:42;;;;;;;42.78;28.08;;;;;;;;;;4974041;28;20537;-78
2021/01/24 00:26:08;;;;;;;41.05;26.88;;;;;;;;;;4973714;28;20074;-78
2021/01/24 00:28:34;;;;;;;41.95;27.30;;;;;;;;;;4973533;28;20026;-78
2021/01/24 00:31:01;;;;;;;41.65;25.40;;;;;;;;;;4956275;28;20073;-78
2021/01/24 00:33:27;;;;;;;42.70;25.75;;;;;;;;;;4956472;28;20018;-78
2021/01/24 00:35:53;;;;;;;38.03;23.63;;;;;;;;;;4973544;28;20073;-78
2021/01/24 00:38:19;;;;;;;43.00;23.80;;;;;;;;;;4956268;28;20078;-78
2021/01/24 00:40:45;;;;;;;33.38;22.50;;;;;;;;;;4956400;28;20113;-78
2021/01/24 00:43:11;;;;;;;36.42;24.05;;;;;;;;;;4956105;28;20100;-77
2021/01/24 00:45:37;;;;;;;31.20;20.00;;;;;;;;;;4955930;28;20476;-77
2021/01/24 00:48:03;;;;;;;35.92;21.45;;;;;;;;;;4973113;28;20098;-78
2021/01/24 00:50:29;;;;;;;38.63;23.80;;;;;;;;;;4956233;28;20094;-78
2021/01/24 00:52:55;;;;;;;35.92;21.25;;;;;;;;;;4973303;28;20023;-77
2021/01/24 00:55:21;;;;;;;36.03;23.23;;;;;;;;;;4973289;28;20030;-77
2021/01/24 00:57:47;;;;;;;37.33;23.55;;;;;;;;;;4973187;28;20019;-77
2021/01/24 01:00:13;;;;;;;34.08;21.50;;;;;;;;;;4973073;28;20364;-77
2021/01/24 01:02:39;;;;;;;32.78;20.77;;;;;;;;;;4956077;28;20033;-77
2021/01/24 01:05:06;;;;;;;32.40;20.55;;;;;;;;;;4955912;28;20023;-77
2021/01/24 01:07:32;;;;;;;32.35;20.08;;;;;;;;;;4955690;28;20023;-77
2021/01/24 01:09:58;;;;;;;31.90;19.02;;;;;;;;;;4972930;28;20027;-78
2021/01/24 01:12:24;;;;;;;31.88;16.83;;;;;;;;;;4955983;28;20070;-78
2021/01/24 01:14:50;;;;;;;35.00;19.10;;;;;;;;;;4955958;28;20472;-77
2021/01/24 01:17:16;;;;;;;31.95;19.35;;;;;;;;;;4955613;28;20057;-77
2021/01/24 01:19:42;;;;;;;33.83;19.17;;;;;;;;;;4955999;28;20422;-77
2021/01/24 01:22:08;;;;;;;31.48;18.17;;;;;;;;;;4955771;28;20057;-77
2021/01/24 01:24:34;;;;;;;31.75;17.33;;;;;;;;;;4956051;28;20062;-76
2021/01/24 01:27:01;;;;;;;34.30;18.40;;;;;;;;;;4973086;28;20030;-77
2021/01/24 01:29:27;;;;;;;28.65;17.10;;;;;;;;;;4955911;28;20097;-77
2021/01/24 01:31:53;;;;;;;28.52;16.95;;;;;;;;;;4972688;28;20043;-78
2021/01/24 01:34:20;;;;;;;29.90;18.15;;;;;;;;;;4955871;28;20023;-77
2021/01/24 01:36:47;;;;;;;28.50;16.23;;;;;;;;;;4972995;28;20462;-77
2021/01/24 01:39:13;;;;;;;29.17;16.50;;;;;;;;;;4955337;28;20030;-77
2021/01/24 01:41:39;;;;;;;29.02;16.50;;;;;;;;;;4975568;28;20027;-77
2021/01/24 01:44:05;;;;;;;21.88;13.10;;;;;;;;;;4959326;28;20510;-77
2021/01/24 01:46:31;;;;;;;24.40;13.48;;;;;;;;;;4959196;28;20074;-77
2021/01/24 01:48:58;;;;;;;23.10;13.27;;;;;;;;;;4976957;28;20050;-77
2021/01/24 01:51:24;;;;;;;27.90;13.95;;;;;;;;;;4959437;28;20341;-77
2021/01/24 01:53:51;;;;;;;24.95;13.80;;;;;;;;;;4959259;28;20078;-77
2021/01/24 01:56:17;;;;;;;25.00;12.68;;;;;;;;;;4959013;28;20074;-76
2021/01/24 01:58:43;;;;;;;26.63;11.30;;;;;;;;;;4958989;28;20042;-77
2021/01/24 02:01:24;;;;;;;25.35;15.10;;;;;;;;;;4959014;28;20036;-76
2021/01/24 02:03:55;;;;;;;23.95;12.07;;;;;;;;;;4959187;28;20050;-76
2021/01/24 02:06:21;;;;;;;;;;;;;;;;;;4959297;28;20062;-77
2021/01/24 02:08:47;;;;;;;24.92;13.02;;;;;;;;;;4958948;28;19917;-77
2021/01/24 02:11:30;;;;;;;25.85;11.70;;;;;;;;;;4958854;28;20019;-77
2021/01/24 02:14:06;;;;;;;22.02;12.68;;;;;;;;;;4958617;28;20015;-77
2021/01/24 02:16:34;;;;;;;20.17;9.98;;;;;;;;;;4958887;28;20019;-77
2021/01/24 02:19:02;;;;;;;17.77;9.38;;;;;;;;;;4990792;28;20442;-77
2021/01/24 02:21:29;;;;;;;20.98;10.65;;;;;;;;;;4976263;28;20127;-77
2021/01/24 02:23:56;;;;;;;18.58;11.00;;;;;;;;;;4958906;28;20030;-78
2021/01/24 02:26:41;;;;;;;18.10;10.38;;;;;;;;;;4958446;28;20015;-78
2021/01/24 02:29:22;;;;;;;18.88;9.45;;;;;;;;;;4958481;28;20142;-77
2021/01/24 02:31:49;;;;;;;18.10;9.05;;;;;;;;;;4990973;28;20055;-78
2021/01/24 02:34:17;;;;;;;19.42;9.05;;;;;;;;;;4990605;28;20034;-77
2021/01/24 02:36:43;;;;;;;18.15;9.13;;;;;;;;;;4990678;28;20057;-77
2021/01/24 02:39:11;;;;;;;14.23;8.82;;;;;;;;;;4975302;28;20027;-77
2021/01/24 02:41:38;;;;;;;16.33;8.27;;;;;;;;;;4975538;28;20019;-77
2021/01/24 02:44:04;;;;;;;17.67;9.10;;;;;;;;;;4990551;28;20073;-77
2021/01/24 02:46:31;;;;;;;22.55;9.88;;;;;;;;;;4990412;28;20023;-77
2021/01/24 02:48:57;;;;;;;21.88;10.23;;;;;;;;;;4990621;28;20483;-78
2021/01/24 02:51:23;;;;;;;19.42;9.80;;;;;;;;;;4958015;28;20026;-78
2021/01/24 02:53:50;;;;;;;15.95;8.98;;;;;;;;;;4976032;28;20034;-78
2021/01/24 02:56:18;;;;;;;18.63;10.15;;;;;;;;;;4990314;28;20019;-77
2021/01/24 02:58:44;;;;;;;16.20;8.88;;;;;;;;;;4957891;28;20039;-78
2021/01/24 03:01:11;;;;;;;20.30;10.25;;;;;;;;;;4990277;28;20050;-78
2021/01/24 03:03:37;;;;;;;16.55;9.25;;;;;;;;;;4958168;28;20146;-78
2021/01/24 03:06:03;;;;;;;15.60;10.23;;;;;;;;;;4975266;28;20015;-78
2021/01/24 03:08:29;;;;;;;18.15;9.65;;;;;;;;;;4958018;28;20074;-78
2021/01/24 03:10:55;;;;;;;22.10;11.07;;;;;;;;;;4990333;28;20113;-78
2021/01/24 03:13:24;;;;;;;17.98;9.07;;;;;;;;;;4974781;28;20054;-78
2021/01/24 03:15:51;;;;;;;16.77;9.45;;;;;;;;;;4975249;28;20498;-78
2021/01/24 03:18:19;;;;;;;21.27;9.93;;;;;;;;;;4974643;28;20106;-77
2021/01/24 03:20:46;;;;;;;18.15;9.90;;;;;;;;;;4990053;28;20494;-77
2021/01/24 03:23:12;;;;;;;20.05;9.90;;;;;;;;;;4989801;28;20022;-77
2021/01/24 03:25:39;;;;;;;22.27;10.90;;;;;;;;;;4989909;28;20662;-78
2021/01/24 03:28:07;;;;;;;19.10;11.43;;;;;;;;;;4974820;28;20033;-78
2021/01/24 03:30:33;;;;;;;21.05;12.05;;;;;;;;;;4957648;28;20021;-77
2021/01/24 03:32:59;;;;;;;23.58;12.30;;;;;;;;;;4974681;28;20018;-78
2021/01/24 03:35:25;;;;;;;22.15;12.25;;;;;;;;;;4957457;28;20352;-78
2021/01/24 03:37:51;;;;;;;23.95;12.77;;;;;;;;;;4957516;28;20026;-77
2021/01/24 03:40:17;;;;;;;23.15;13.85;;;;;;;;;;4974839;28;20027;-77
2021/01/24 03:42:43;;;;;;;25.17;12.93;;;;;;;;;;4957453;28;20019;-78
2021/01/24 03:45:10;;;;;;;22.63;14.25;;;;;;;;;;4957069;28;20069;-78
2021/01/24 03:47:36;;;;;;;27.52;14.57;;;;;;;;;;4974924;28;20018;-78
2021/01/24 03:50:02;;;;;;;31.67;14.82;;;;;;;;;;4974383;28;20029;-78
2021/01/24 03:52:28;;;;;;;30.55;15.48;;;;;;;;;;4957133;28;20361;-78
2021/01/24 03:54:54;;;;;;;29.73;14.15;;;;;;;;;;4974245;28;20019;-78
2021/01/24 03:57:20;;;;;;;27.88;17.33;;;;;;;;;;4956807;28;20077;-78
2021/01/24 03:59:49;;;;;;;27.88;14.20;;;;;;;;;;4973935;28;20046;-78
2021/01/24 04:02:16;;;;;;;32.55;16.27;;;;;;;;;;4956727;28;20027;-78
2021/01/24 04:04:42;;;;;;;27.67;15.38;;;;;;;;;;4956337;28;20021;-78
2021/01/24 04:07:08;;;;;;;33.08;15.07;;;;;;;;;;4956661;28;20110;-77
2021/01/24 04:09:34;;;;;;;29.02;16.27;;;;;;;;;;4956937;28;20105;-78
2021/01/24 04:12:00;;;;;;;27.05;14.18;;;;;;;;;;4956923;28;20121;-78
2021/01/24 04:14:26;;;;;;;25.45;13.70;;;;;;;;;;4956570;28;20034;-78
2021/01/24 04:16:52;;;;;;;28.88;14.07;;;;;;;;;;4974214;28;20030;-78
2021/01/24 04:19:18;;;;;;;27.02;16.08;;;;;;;;;;4956427;28;20599;-77
2021/01/24 04:21:44;;;;;;;26.65;14.95;;;;;;;;;;4974154;28;20029;-78
2021/01/24 04:24:10;;;;;;;31.00;15.55;;;;;;;;;;4956521;28;20065;-78
2021/01/24 04:26:36;;;;;;;28.83;13.52;;;;;;;;;;4956604;28;20110;-78
2021/01/24 04:29:02;;;;;;;28.58;15.20;;;;;;;;;;4973914;28;20110;-78
2021/01/24 04:31:28;;;;;;;25.50;14.75;;;;;;;;;;4973854;28;20022;-78
2021/01/24 04:33:54;;;;;;;24.27;14.05;;;;;;;;;;4956626;28;20019;-78
2021/01/24 04:36:20;;;;;;;24.25;14.18;;;;;;;;;;4973694;28;20019;-78
2021/01/24 04:38:46;;;;;;;24.80;14.25;;;;;;;;;;4973858;28;20057;-77
2021/01/24 04:41:13;;;;;;;28.05;14.05;;;;;;;;;;4956123;28;20018;-78
2021/01/24 04:43:40;;;;;;;27.58;15.48;;;;;;;;;;4973597;28;20101;-78
2021/01/24 04:46:07;;;;;;;24.80;14.38;;;;;;;;;;4956111;28;20015;-77
2021/01/24 04:48:33;;;;;;;23.83;13.75;;;;;;;;;;4956353;28;20376;-78
2021/01/24 04:50:59;;;;;;;31.90;16.33;;;;;;;;;;4956301;28;20146;-78
2021/01/24 04:53:25;;;;;;;24.02;14.80;;;;;;;;;;4956073;28;20481;-78
2021/01/24 04:55:51;;;;;;;26.20;15.48;;;;;;;;;;4973301;28;20015;-78
2021/01/24 04:58:18;;;;;;;26.85;14.95;;;;;;;;;;4955566;28;20416;-79
2021/01/24 05:00:44;;;;;;;34.25;15.75;;;;;;;;;;4956321;28;20023;-78
2021/01/24 05:03:10;;;;;;;24.65;14.18;;;;;;;;;;4955938;28;20114;-77
2021/01/24 05:05:36;;;;;;;25.35;13.45;;;;;;;;;;4956028;28;20046;-77
2021/01/24 05:08:06;;;;;;;28.30;13.80;;;;;;;;;;4956202;28;20074;-77
2021/01/24 05:10:32;;;;;;;29.65;14.50;;;;;;;;;;4956196;28;20019;-77
2021/01/24 05:12:58;;;;;;;36.08;15.00;;;;;;;;;;4955938;28;20026;-78
2021/01/24 05:15:25;;;;;;;26.92;14.70;;;;;;;;;;4958136;28;20113;-78
2021/01/24 05:17:52;;;;;;;26.23;14.13;;;;;;;;;;4977124;28;20019;-77
2021/01/24 05:20:20;;;;;;;29.50;15.32;;;;;;;;;;4959767;28;20038;-77
2021/01/24 05:22:46;;;;;;;27.45;13.88;;;;;;;;;;4960072;28;20027;-77
2021/01/24 05:25:12;;;;;;;24.20;12.90;;;;;;;;;;4959672;28;20372;-77
2021/01/24 05:27:38;;;;;;;23.88;13.40;;;;;;;;;;4959901;28;20073;-77
2021/01/24 05:30:05;;;;;;;27.20;15.50;;;;;;;;;;4959843;28;20474;-78
2021/01/24 05:32:41;;;;;;;27.45;14.57;;;;;;;;;;4959601;28;20118;-78
2021/01/24 05:35:11;;;;;;;26.67;14.25;;;;;;;;;;4976992;28;20022;-78
2021/01/24 05:37:38;;;;;;;27.15;13.50;;;;;;;;;;4977111;28;20030;-77
2021/01/24 05:40:05;;;;;;;24.05;12.82;;;;;;;;;;4959640;28;20034;-77
2021/01/24 05:42:34;;;;;;;28.88;13.77;;;;;;;;;;4959400;28;20518;-78
2021/01/24 05:45:00;;;;;;;23.15;13.00;;;;;;;;;;4976736;28;20353;-78
2021/01/24 05:47:26;;;;;;;30.73;15.02;;;;;;;;;;4976325;28;20070;-78
2021/01/24 05:49:52;;;;;;;23.30;11.68;;;;;;;;;;4976853;28;20465;-78
2021/01/24 05:52:19;;;;;;;22.42;12.57;;;;;;;;;;4959208;28;20019;-78
2021/01/24 05:54:48;;;;;;;21.27;12.20;;;;;;;;;;4959257;28;20456;-78
2021/01/24 05:57:15;;;;;;;21.48;11.90;;;;;;;;;;4976639;28;20034;-78
2021/01/24 05:59:48;;;;;;;18.77;10.90;;;;;;;;;;4958987;28;20039;-77
2021/01/24 06:02:15;;;;;;;24.38;10.82;;;;;;;;;;4976383;28;20018;-77
2021/01/24 06:04:42;;;;;;;22.00;11.48;;;;;;;;;;4959129;28;20018;-77
2021/01/24 06:07:08;;;;;;;19.52;9.82;;;;;;;;;;4976443;28;20098;-77
2021/01/24 06:09:34;;;;;;;20.77;10.60;;;;;;;;;;4991289;28;20019;-78
2021/01/24 06:12:02;;;;;;;24.08;10.90;;;;;;;;;;4959125;28;20074;-78
2021/01/24 06:14:28;;;;;;;21.08;9.55;;;;;;;;;;4958907;28;20015;-78
2021/01/24 06:16:55;;;;;;;18.77;9.88;;;;;;;;;;4991204;28;20046;-78
2021/01/24 06:19:21;;;;;;;18.40;9.13;;;;;;;;;;4990894;28;20077;-77
2021/01/24 06:21:52;;;;;;;17.75;9.02;;;;;;;;;;4991144;28;20023;-78
2021/01/24 06:24:22;;;;;;;17.08;9.13;;;;;;;;;;4990861;28;20058;-77
2021/01/24 06:26:50;;;;;;;17.90;9.18;;;;;;;;;;4990392;28;20151;-77
2021/01/24 06:29:16;;;;;;;18.08;8.60;;;;;;;;;;4975683;28;20444;-77
2021/01/24 06:31:48;;;;;;;18.00;7.72;;;;;;;;;;4991035;28;20019;-78
2021/01/24 06:34:15;;;;;;;14.75;8.13;;;;;;;;;;4975732;28;20518;-77
2021/01/24 06:37:00;;;;;;;18.67;8.90;;;;;;;;;;4990826;28;20022;-78
2021/01/24 06:39:31;;;;;;;16.88;8.38;;;;;;;;;;4990569;28;20058;-77
2021/01/24 06:41:57;;;;;;;18.92;8.40;;;;;;;;;;4975887;28;20011;-77
2021/01/24 06:44:36;;;;;;;15.57;8.60;;;;;;;;;;4990476;28;20058;-78
2021/01/24 06:47:23;;;;;;;18.38;9.63;;;;;;;;;;4990645;28;20019;-77
2021/01/24 06:49:49;;;;;;;17.23;8.63;;;;;;;;;;4951326;28;20038;-77
2021/01/24 06:52:16;;;;;;;17.50;8.63;;;;;;;;;;4990490;28;20026;-77
2021/01/24 06:54:42;;;;;;;18.63;9.10;;;;;;;;;;4990587;28;20050;-77
2021/01/24 06:57:08;;;;;;;16.70;8.48;;;;;;;;;;4975624;28;20047;-77
2021/01/24 06:59:34;;;;;;;18.02;8.88;;;;;;;;;;4990054;28;20043;-77
2021/01/24 07:02:19;;;;;;;16.60;9.27;;;;;;;;;;4975511;28;20015;-77
2021/01/24 07:05:05;;;;;;;17.13;8.52;;;;;;;;;;4990437;28;20458;-77
2021/01/24 07:07:31;;;;;;;15.93;9.45;;;;;;;;;;4990157;28;20025;-78
2021/01/24 07:09:58;;;;;;;16.83;9.20;;;;;;;;;;4975348;28;20451;-78
2021/01/24 07:12:34;;;;;;;16.98;9.00;;;;;;;;;;4975024;28;20015;-78
2021/01/24 07:15:00;;;;;;;18.85;8.00;;;;;;;;;;4975325;28;20021;-77
2021/01/24 07:17:27;;;;;;;15.90;8.63;;;;;;;;;;4989868;28;20023;-78
2021/01/24 07:19:53;;;;;;;15.85;8.18;;;;;;;;;;4974745;28;20058;-78
2021/01/24 07:22:24;;;;;;;15.90;7.93;;;;;;;;;;4989869;28;20027;-78
2021/01/24 07:24:50;;;;;;;13.60;6.90;;;;;;;;;;4990067;28;20030;-78
2021/01/24 07:27:18;;;;;;;14.60;7.38;;;;;;;;;;4975024;28;20074;-79
2021/01/24 07:29:45;;;;;;;15.20;7.65;;;;;;;;;;4974772;28;20023;-78
2021/01/24 07:32:13;;;;;;;16.27;8.35;;;;;;;;;;4974887;28;20019;-78
2021/01/24 07:34:40;;;;;;;16.23;8.30;;;;;;;;;;4989749;28;20019;-78
2021/01/24 07:37:06;;;;;;;15.90;8.57;;;;;;;;;;4989762;28;20495;-77
2021/01/24 07:39:33;;;;;;;15.50;7.57;;;;;;;;;;4988400;28;20031;-78
2021/01/24 07:41:59;;;;;;;16.95;7.65;;;;;;;;;;4989593;28;20026;-78
2021/01/24 07:44:25;;;;;;;16.52;8.25;;;;;;;;;;4989321;28;20026;-78
2021/01/24 07:46:51;;;;;;;20.40;9.30;;;;;;;;;;4974547;28;20034;-78
2021/01/24 07:49:18;;;;;;;14.80;7.53;;;;;;;;;;4989190;28;20027;-78
2021/01/24 07:51:44;;;;;;;13.27;7.55;;;;;;;;;;4974589;28;20053;-78
2021/01/24 07:54:11;;;;;;;15.98;8.57;;;;;;;;;;4974576;28;20079;-78
2021/01/24 07:56:38;;;;;;;15.85;8.20;;;;;;;;;;4973983;28;20019;-78
2021/01/24 07:59:04;;;;;;;14.73;7.53;;;;;;;;;;4974280;28;20042;-78
2021/01/24 08:01:30;;;;;;;17.70;7.97;;;;;;;;;;4973884;28;20024;-79
2021/01/24 08:03:59;;;;;;;15.43;7.53;;;;;;;;;;4982672;28;20431;-79
2021/01/24 08:06:26;;;;;;;16.25;8.13;;;;;;;;;;4956704;28;20480;-78
2021/01/24 08:08:52;;;;;;;14.18;7.32;;;;;;;;;;4957199;28;20363;-78
2021/01/24 08:11:18;;;;;;;14.52;7.72;;;;;;;;;;4956957;28;20023;-79
2021/01/24 08:13:45;;;;;;;17.98;8.20;;;;;;;;;;4956735;28;20022;-78
2021/01/24 08:16:14;;;;;;;16.40;7.80;;;;;;;;;;4989142;28;20026;-79
2021/01/24 08:18:42;;;;;;;19.05;9.57;;;;;;;;;;4973435;28;20023;-78
2021/01/24 08:21:08;;;;;;;20.85;12.20;;;;;;;;;;4973752;28;20069;-78
2021/01/24 08:23:35;;;;;;;18.27;8.48;;;;;;;;;;4955759;28;20019;-79
2021/01/24 08:26:01;;;;;;;16.83;9.18;;;;;;;;;;4988027;28;20471;-79
2021/01/24 08:28:27;;;;;;;16.08;8.80;;;;;;;;;;4987859;28;20042;-79
2021/01/24 08:30:53;;;;;;;15.65;8.18;;;;;;;;;;4988180;28;20079;-79
2021/01/24 08:33:19;;;;;;;15.05;8.30;;;;;;;;;;4987858;28;20050;-78
2021/01/24 08:35:46;;;;;;;16.50;7.88;;;;;;;;;;4988118;28;20411;-78
2021/01/24 08:38:13;;;;;;;15.45;7.50;;;;;;;;;;4987952;28;20094;-77
2021/01/24 08:40:39;;;;;;;14.32;8.05;;;;;;;;;;4987829;28;20560;-78
2021/01/24 08:43:06;;;;;;;12.50;6.95;;;;;;;;;;4987820;28;20054;-78
2021/01/24 08:45:32;;;;;;;16.95;6.88;;;;;;;;;;4972455;28;20015;-78
2021/01/24 08:48:01;;;;;;;14.70;7.05;;;;;;;;;;4987891;28;20033;-78
2021/01/24 08:50:38;;;;;;;9.32;5.60;;;;;;;;;;4972414;28;20034;-79
2021/01/24 08:53:06;;;;;;;10.13;5.45;;;;;;;;;;4972870;28;20014;-78
2021/01/24 08:55:45;;;;;;;7.93;4.65;;;;;;;;;;4987423;28;20054;-78
2021/01/24 08:58:27;;;;;;;9.43;4.10;;;;;;;;;;4987584;28;20125;-79
2021/01/24 09:01:03;;;;;;;8.02;4.07;;;;;;;;;;4987493;28;20370;-78
2021/01/24 09:03:29;;;;;;;11.52;5.68;;;;;;;;;;4987714;28;20034;-78
2021/01/24 09:06:12;;;;;;;10.02;4.63;;;;;;;;;;4988307;28;20027;-78
2021/01/24 09:08:44;;;;;;;6.95;3.95;;;;;;;;;;4988037;28;20603;-79
2021/01/24 09:11:10;;;;;;;9.60;3.90;;;;;;;;;;4988157;28;20069;-79
2021/01/24 09:13:36;;;;;;;7.93;3.30;;;;;;;;;;4987609;28;20030;-78
2021/01/24 09:16:02;;;;;;;7.03;3.30;;;;;;;;;;4987644;28;20014;-79
2021/01/24 09:18:28;;;;;;;6.03;3.47;;;;;;;;;;4987297;28;20073;-78
2021/01/24 09:20:54;;;;;;;7.75;3.17;;;;;;;;;;4987495;28;20054;-78
2021/01/24 09:23:20;;;;;;;5.97;3.30;;;;;;;;;;4983223;28;20018;-78
2021/01/24 09:25:46;;;;;;;6.45;3.08;;;;;;;;;;4991993;28;20031;-78
2021/01/24 09:28:12;;;;;;;7.05;2.60;;;;;;;;;;4992212;28;20081;-78
2021/01/24 09:30:38;;;;;;;7.68;3.65;;;;;;;;;;4990701;28;20038;-78
2021/01/24 09:33:04;;;;;;;7.05;2.70;;;;;;;;;;4991302;28;20022;-78
2021/01/24 09:35:30;;;;;;;5.60;2.20;;;;;;;;;;4990743;28;20028;-77
2021/01/24 09:37:56;;;;;;;5.00;2.22;;;;;;;;;;4992213;28;20050;-78
2021/01/24 09:40:22;;;;;;;5.15;2.20;;;;;;;;;;4992011;28;20098;-78
2021/01/24 09:42:48;;;;;;;9.13;2.17;;;;;;;;;;4990659;28;20407;-78
2021/01/24 09:45:14;;;;;;;6.00;2.15;;;;;;;;;;4991996;28;20022;-78
2021/01/24 09:47:40;;;;;;;5.68;2.28;;;;;;;;;;4990752;28;20018;-78
2021/01/24 09:50:07;;;;;;;5.07;1.58;;;;;;;;;;4992194;28;20022;-78
2021/01/24 09:52:33;;;;;;;3.47;1.40;;;;;;;;;;4991923;28;20503;-79
2021/01/24 09:54:59;;;;;;;5.80;1.58;;;;;;;;;;4991179;28;20022;-79
2021/01/24 09:57:25;;;;;;;4.55;1.60;;;;;;;;;;4990778;28;20379;-80
2021/01/24 09:59:51;;;;;;;3.85;1.75;;;;;;;;;;4990802;28;20534;-80
2021/01/24 10:02:17;;;;;;;3.25;1.63;;;;;;;;;;4992930;28;20371;-80
2021/01/24 10:04:43;;;;;;;5.72;1.83;;;;;;;;;;4994363;28;20444;-80
2021/01/24 10:07:09;;;;;;;3.45;1.38;;;;;;;;;;4994314;28;20018;-80
2021/01/24 10:09:35;;;;;;;4.40;1.35;;;;;;;;;;4995694;28;20089;-77
2021/01/24 10:12:01;;;;;;;5.43;1.60;;;;;;;;;;4995960;28;20053;-77
2021/01/24 10:14:27;;;;;;;3.67;1.20;;;;;;;;;;4976283;28;20102;-78
2021/01/24 10:16:53;;;;;;;5.78;1.60;;;;;;;;;;4960371;28;20030;-78
2021/01/24 10:19:19;;;;;;;6.00;1.50;;;;;;;;;;4960278;28;20085;-78
2021/01/24 10:21:45;;;;;;;3.55;1.20;;;;;;;;;;4960330;28;20031;-78
2021/01/24 10:24:11;;;;;;;4.13;1.33;;;;;;;;;;4960275;28;20034;-78
2021/01/24 10:26:37;;;;;;;4.20;1.40;;;;;;;;;;4959960;28;20023;-78
2021/01/24 10:29:04;;;;;;;5.38;1.30;;;;;;;;;;4960183;28;20018;-79
2021/01/24 10:31:30;;;;;;;3.65;1.20;;;;;;;;;;4960298;28;20022;-78
2021/01/24 10:33:56;;;;;;;7.15;1.65;;;;;;;;;;4960667;28;20122;-79
2021/01/24 10:36:22;;;;;;;4.82;1.10;;;;;;;;;;4977477;28;20050;-81
2021/01/24 10:38:49;;;;;;;4.90;1.20;;;;;;;;;;4959825;28;20039;-75
2021/01/24 10:41:15;;;;;;;3.70;1.10;;;;;;;;;;4959999;28;20555;-81
2021/01/24 10:43:41;;;;;;;4.80;1.58;;;;;;;;;;4959697;28;20030;-82
2021/01/24 10:46:07;;;;;;;5.80;1.63;;;;;;;;;;4977476;28;20022;-81
2021/01/24 10:48:33;;;;;;;5.47;1.92;;;;;;;;;;4959690;28;20022;-81
2021/01/24 10:50:59;;;;;;;3.05;1.02;;;;;;;;;;4959659;28;20479;-81
2021/01/24 10:53:25;;;;;;;6.65;1.25;;;;;;;;;;4959749;28;20172;-82
2021/01/24 10:55:51;;;;;;;6.45;1.45;;;;;;;;;;4959782;28;20069;-81
2021/01/24 10:58:17;;;;;;;3.30;0.70;;;;;;;;;;4959735;28;20062;-81
2021/01/24 11:00:43;;;;;;;4.35;1.13;;;;;;;;;;4959612;28;20432;-80
2021/01/24 11:03:09;;;;;;;4.75;1.35;;;;;;;;;;4959089;28;20065;-79
2021/01/24 11:05:35;;;;;;;4.28;0.90;;;;;;;;;;4958691;28;20023;-76
2021/01/24 11:08:01;;;;;;;5.20;1.35;;;;;;;;;;4958916;28;20015;-80
2021/01/24 11:10:27;;;;;;;2.53;0.95;;;;;;;;;;4957868;28;20082;-81
2021/01/24 11:12:53;;;;;;;4.53;1.00;;;;;;;;;;4965589;28;20398;-81
2021/01/24 11:15:19;;;;;;;5.38;1.30;;;;;;;;;;4979980;28;20029;-81
2021/01/24 11:17:45;;;;;;;3.97;1.17;;;;;;;;;;4978930;28;20113;-80
2021/01/24 11:20:11;;;;;;;4.85;1.10;;;;;;;;;;4977660;28;20478;-82
2021/01/24 11:22:38;;;;;;;3.05;1.08;;;;;;;;;;4977985;28;20026;-81
2021/01/24 11:25:07;;;;;;;5.40;1.13;;;;;;;;;;4995303;28;20466;-81
2021/01/24 11:27:34;;;;;;;5.57;1.15;;;;;;;;;;4977118;28;20054;-81
2021/01/24 11:30:00;;;;;;;6.93;1.30;;;;;;;;;;4977597;28;20137;-82
2021/01/24 11:32:26;;;;;;;2.70;0.63;;;;;;;;;;4973414;28;20061;-81
2021/01/24 11:34:52;;;;;;;5.20;1.10;;;;;;;;;;4976985;28;20023;-81
2021/01/24 11:37:18;;;;;;;3.17;1.02;;;;;;;;;;4976892;28;20513;-80
2021/01/24 11:39:44;;;;;;;2.58;0.98;;;;;;;;;;4976410;28;20514;-82
2021/01/24 11:42:10;;;;;;;5.38;1.30;;;;;;;;;;4976661;28;20033;-82
2021/01/24 11:44:36;;;;;;;3.22;0.80;;;;;;;;;;4976627;28;20443;-82
2021/01/24 11:47:02;;;;;;;5.07;1.15;;;;;;;;;;4976858;28;20018;-82
2021/01/24 11:49:28;;;;;;;4.93;1.17;;;;;;;;;;4976439;28;20465;-83
2021/01/24 11:51:54;;;;;;;3.83;1.40;;;;;;;;;;4994354;28;20014;-84
2021/01/24 11:54:20;;;;;;;3.15;1.10;;;;;;;;;;4976753;28;20375;-82
2021/01/24 11:56:46;;;;;;;5.07;1.42;;;;;;;;;;4993890;28;20110;-82
2021/01/24 11:59:12;;;;;;;4.63;1.02;;;;;;;;;;4976220;28;20133;-82
2021/01/24 12:01:38;;;;;;;4.55;1.05;;;;;;;;;;4976227;28;20022;-80
2021/01/24 12:04:05;;;;;;;3.28;0.77;;;;;;;;;;4974773;28;20034;-81
2021/01/24 12:06:31;;;;;;;4.75;1.00;;;;;;;;;;4968829;28;20076;-81
2021/01/24 12:08:57;;;;;;;3.92;1.05;;;;;;;;;;4960539;28;20085;-82
2021/01/24 12:11:23;;;;;;;7.50;1.48;;;;;;;;;;4969491;28;20467;-83
2021/01/24 12:13:49;;;;;;;4.15;1.50;;;;;;;;;;4983562;28;20015;-83
2021/01/24 12:16:15;;;;;;;3.92;1.17;;;;;;;;;;4964360;28;20066;-82
2021/01/24 12:18:41;;;;;;;4.25;1.25;;;;;;;;;;4983637;28;20031;-81
2021/01/24 12:21:07;;;;;;;3.30;1.00;;;;;;;;;;4992193;28;20098;-82
2021/01/24 12:23:33;;;;;;;5.32;1.60;;;;;;;;;;4991944;28;20130;-83
2021/01/24 12:25:59;;;;;;;4.72;1.35;;;;;;;;;;4991749;28;20053;-78
2021/01/24 12:28:25;;;;;;;8.43;2.80;;;;;;;;;;4991522;28;20105;-79
2021/01/24 12:30:51;;;;;;;9.05;2.50;;;;;;;;;;4992746;28;20497;-79
2021/01/24 12:33:17;;;;;;;8.68;3.00;;;;;;;;;;4981856;28;20019;-79
2021/01/24 12:35:44;;;;;;;7.82;3.10;;;;;;;;;;4973456;28;20026;-80
2021/01/24 12:38:10;;;;;;;8.57;1.80;;;;;;;;;;4972701;28;20019;-80
2021/01/24 12:40:36;;;;;;;6.35;1.77;;;;;;;;;;4972502;28;20030;-79
2021/01/24 12:43:03;;;;;;;9.32;1.80;;;;;;;;;;4972608;28;20014;-80
2021/01/24 12:45:29;;;;;;;7.53;2.20;;;;;;;;;;4973643;28;20019;-80
2021/01/24 12:47:55;;;;;;;9.45;2.13;;;;;;;;;;4972391;28;20042;-80
2021/01/24 12:50:21;;;;;;;7.38;2.28;;;;;;;;;;4972325;28;20098;-80
2021/01/24 12:52:47;;;;;;;8.07;2.15;;;;;;;;;;4972184;28;20443;-80
2021/01/24 12:55:14;;;;;;;10.00;2.38;;;;;;;;;;4972548;28;20074;-79
2021/01/24 12:57:40;;;;;;;7.18;2.58;;;;;;;;;;4973166;28;20103;-80
2021/01/24 13:00:06;;;;;;;13.45;3.20;;;;;;;;;;4972376;28;20035;-80
2021/01/24 13:02:32;;;;;;;8.43;2.65;;;;;;;;;;4972050;28;20448;-80
2021/01/24 13:04:58;;;;;;;6.82;2.65;;;;;;;;;;4971790;28;20058;-80
2021/01/24 13:07:24;;;;;;;11.40;3.15;;;;;;;;;;4971660;28;20023;-80
2021/01/24 13:09:50;;;;;;;10.10;3.38;;;;;;;;;;4973142;28;20035;-80
2021/01/24 13:12:16;;;;;;;10.90;3.28;;;;;;;;;;4971687;28;20026;-79
2021/01/24 13:14:42;;;;;;;11.55;4.90;;;;;;;;;;4971263;28;20066;-83
2021/01/24 13:17:08;;;;;;;34.85;18.17;;;;;;;;;;4960328;28;20027;-82
2021/01/24 13:19:34;;;;;;;10.75;2.78;;;;;;;;;;4955124;28;20482;-81
2021/01/24 13:22:00;;;;;;;6.38;2.03;;;;;;;;;;4955333;28;20023;-82
2021/01/24 13:24:27;;;;;;;6.22;1.48;;;;;;;;;;4955802;28;20027;-83
2021/01/24 13:26:55;;;;;;;3.50;1.20;;;;;;;;;;4957475;28;20105;-83
2021/01/24 13:29:21;;;;;;;5.32;1.20;;;;;;;;;;4957275;28;20383;-80
2021/01/24 13:31:47;;;;;;;5.55;1.63;;;;;;;;;;4974105;28;20019;-82
2021/01/24 13:34:13;;;;;;;2.70;1.52;;;;;;;;;;4963036;28;20023;-82
2021/01/24 13:36:39;;;;;;;8.75;2.00;;;;;;;;;;4959761;28;20022;-81
2021/01/24 13:39:06;;;;;;;5.28;1.98;;;;;;;;;;4960458;28;20037;-80
2021/01/24 13:41:32;;;;;;;6.43;2.20;;;;;;;;;;4960589;28;20477;-82
2021/01/24 13:43:58;;;;;;;4.82;1.85;;;;;;;;;;4978639;28;20019;-82
2021/01/24 13:46:24;;;;;;;6.90;2.28;;;;;;;;;;4961159;28;20033;-84
2021/01/24 13:48:50;;;;;;;8.52;3.42;;;;;;;;;;4960859;28;20051;-85
2021/01/24 13:51:16;;;;;;;8.30;3.05;;;;;;;;;;4961027;28;20022;-83
2021/01/24 13:53:42;;;;;;;8.15;2.90;;;;;;;;;;4960562;28;20026;-84
2021/01/24 13:56:08;;;;;;;10.40;3.30;;;;;;;;;;4960434;28;20031;-83
2021/01/24 13:58:34;;;;;;;9.05;3.38;;;;;;;;;;4959826;28;20043;-83
2021/01/24 14:01:00;;;;;;;12.50;5.10;;;;;;;;;;4960341;28;20026;-83
2021/01/24 14:03:26;;;;;;;11.05;3.60;;;;;;;;;;4977750;28;20375;-83
2021/01/24 14:05:52;;;;;;;8.82;3.45;;;;;;;;;;4960236;28;20023;-84
2021/01/24 14:08:18;;;;;;;20.95;7.90;;;;;;;;;;4960040;28;20026;-79
2021/01/24 14:10:44;;;;;;;10.95;4.80;;;;;;;;;;4959938;28;20085;-79
2021/01/24 14:13:10;;;;;;;10.85;3.90;;;;;;;;;;4960289;28;20452;-80
2021/01/24 14:15:36;;;;;;;8.30;3.47;;;;;;;;;;4959066;28;20030;-79
2021/01/24 14:18:02;;;;;;;9.63;3.63;;;;;;;;;;4959759;28;20102;-79
2021/01/24 14:20:28;;;;;;;11.88;3.17;;;;;;;;;;4977360;28;20114;-78
2021/01/24 14:22:55;;;;;;;7.45;2.38;;;;;;;;;;4960084;28;20066;-81
2021/01/24 14:25:21;;;;;;;9.75;3.15;;;;;;;;;;4960592;28;20451;-82
2021/01/24 14:27:47;;;;;;;9.85;3.40;;;;;;;;;;4959562;28;20019;-81
2021/01/24 14:30:14;;;;;;;10.00;3.42;;;;;;;;;;4958707;28;20050;-81